Time;durP1;ratioP1;P1;durP2;ratioP2;P2;SDS_P1;SDS_P2;PMS_P1;PMS_P2;Temp;Humidity;BMP_temperature;BMP_pressure;BME280_temperature;BME280_humidity;BME280_pressure;Samples;Min_cycle;Max_cycle;Signal;HPM_P1;HPM_P2
2023/02/13 00:01:38;;;;;;;113.80;55.80;;;;;;;-0.12;100.00;101035.70;273635;1269;22214;-88
2023/02/13 00:07:40;;;;;;;140.60;64.10;;;;;;;-0.12;100.00;101036.83;273842;1269;22204;-89
2023/02/13 00:13:42;;;;;;;137.10;60.40;;;;;;;-0.14;100.00;101041.70;273643;1267;22398;-89
2023/02/13 00:19:43;;;;;;;125.70;61.90;;;;;;;-0.12;100.00;101039.73;273580;1269;23214;-89
2023/02/13 00:25:45;;;;;;;119.00;59.30;;;;;;;-0.07;100.00;101037.80;273635;1269;22394;-89
2023/02/13 00:31:47;;;;;;;110.40;53.40;;;;;;;-0.02;100.00;101033.47;273609;1270;22430;-89
2023/02/13 00:37:49;;;;;;;129.80;61.10;;;;;;;-0.01;100.00;101031.69;273613;1267;22472;-88
2023/02/13 00:43:51;;;;;;;115.70;56.70;;;;;;;-0.03;100.00;101034.31;270312;1260;22553;-90
2023/02/13 00:49:53;;;;;;;109.40;51.80;;;;;;;-0.02;100.00;101027.70;269997;1267;22540;-89
2023/02/13 00:55:55;;;;;;;117.10;57.30;;;;;;;0.02;100.00;101025.98;270410;1269;22562;-89
2023/02/13 01:01:56;;;;;;;122.00;55.10;;;;;;;0.06;100.00;101022.44;272593;1267;22221;-89
2023/02/13 01:07:58;;;;;;;109.60;54.10;;;;;;;0.07;100.00;101014.64;272631;1269;22550;-89
2023/02/13 01:14:00;;;;;;;160.10;80.30;;;;;;;0.08;100.00;101000.59;273203;1267;23100;-89
2023/02/13 01:20:02;;;;;;;177.20;87.30;;;;;;;0.07;100.00;100993.85;273618;1267;22331;-89
2023/02/13 01:26:05;;;;;;;183.90;91.40;;;;;;;0.07;100.00;100995.09;273740;1269;22383;-89
2023/02/13 01:32:07;;;;;;;188.80;95.30;;;;;;;0.11;100.00;100990.00;271382;1269;22547;-89
2023/02/13 01:38:09;;;;;;;166.20;84.80;;;;;;;0.14;100.00;100975.42;269711;1267;22618;-88
2023/02/13 01:44:46;;;;;;;187.10;95.30;;;;;;;0.13;100.00;100966.73;269262;1268;22356;-88
2023/02/13 01:50:56;;;;;;;191.00;93.40;;;;;;;0.11;100.00;100964.73;269648;1269;22569;-89
2023/02/13 01:57:03;;;;;;;198.90;99.40;;;;;;;0.11;100.00;100959.67;270102;1267;25427;-89
2023/02/13 02:03:13;;;;;;;189.00;95.00;;;;;;;0.09;100.00;100953.03;270357;1270;22542;-88
2023/02/13 02:09:22;;;;;;;163.60;84.70;;;;;;;0.04;100.00;100949.19;269403;1267;22549;-88
2023/02/13 02:15:24;;;;;;;165.60;82.60;;;;;;;0.06;100.00;100940.58;269596;1270;22586;-89
2023/02/13 02:22:04;;;;;;;161.30;82.20;;;;;;;0.09;100.00;100934.08;269431;1269;25424;-89
2023/02/13 02:28:38;;;;;;;166.10;83.80;;;;;;;0.13;100.00;100923.75;269355;1269;22675;-89
2023/02/13 02:35:26;;;;;;;191.30;90.40;;;;;;;0.13;100.00;100925.11;269917;1270;22531;-89
2023/02/13 02:41:55;;;;;;;162.80;82.40;;;;;;;0.13;100.00;100930.87;270387;1270;22548;-88
2023/02/13 02:55:07;;;;;;;157.70;77.70;;;;;;;0.23;100.00;100940.48;269804;1269;22571;-90
2023/02/13 03:07:40;;;;;;;160.10;76.00;;;;;;;0.31;100.00;100939.77;271118;1269;23760;-90
2023/02/13 03:13:44;;;;;;;163.90;80.50;;;;;;;0.31;100.00;100939.51;271022;1269;22575;-88
2023/02/13 03:26:20;;;;;;;165.80;82.90;;;;;;;0.34;100.00;100940.86;271324;1267;23708;-89
2023/02/13 03:32:35;;;;;;;167.60;84.70;;;;;;;0.37;100.00;100946.27;273507;1267;22213;-90
2023/02/13 03:38:41;;;;;;;183.60;90.10;;;;;;;0.42;100.00;100953.69;271813;1267;22558;-90
2023/02/13 03:45:51;;;;;;;167.50;86.60;;;;;;;0.48;100.00;100958.50;269810;1269;23708;-89
2023/02/13 03:51:14;;;;;;;176.80;82.20;;;;;;;0.51;100.00;100960.63;270539;1267;23243;-90
2023/02/13 04:04:04;;;;;;;187.10;84.80;;;;;;;0.62;100.00;100959.33;272759;1267;22545;-89
2023/02/13 04:10:12;;;;;;;187.80;89.00;;;;;;;0.70;100.00;100965.30;272061;1267;22684;-89
2023/02/13 04:16:17;;;;;;;184.80;89.10;;;;;;;0.78;100.00;100963.99;270515;1267;22618;-89
2023/02/13 04:22:19;;;;;;;168.70;81.20;;;;;;;0.83;100.00;100961.69;270677;1269;23357;-89
2023/02/13 04:28:24;;;;;;;184.20;84.80;;;;;;;0.86;100.00;100961.16;271408;1267;22588;-88
2023/02/13 04:34:29;;;;;;;156.60;74.30;;;;;;;0.87;100.00;100960.52;272329;1270;23199;-89
2023/02/13 04:40:31;;;;;;;168.20;77.40;;;;;;;0.93;100.00;100955.85;270942;1269;24278;-87
2023/02/13 04:46:33;;;;;;;167.30;79.10;;;;;;;1.03;100.00;100959.65;273209;1269;22351;-88
2023/02/13 04:52:35;;;;;;;164.40;79.20;;;;;;;1.07;100.00;100954.66;273785;1269;22437;-89
2023/02/13 04:58:37;;;;;;;172.20;80.10;;;;;;;1.12;100.00;100957.53;273117;1254;22565;-88
2023/02/13 05:04:39;;;;;;;170.90;80.50;;;;;;;1.15;100.00;100954.73;272078;1269;22203;-88
2023/02/13 05:10:43;;;;;;;172.30;80.80;;;;;;;1.16;100.00;100954.59;272250;1267;22605;-88
2023/02/13 05:16:45;;;;;;;170.10;80.00;;;;;;;1.16;100.00;100952.16;273485;1269;22315;-88
2023/02/13 05:29:19;;;;;;;150.60;72.10;;;;;;;1.20;100.00;100959.08;273492;1269;22343;-88
2023/02/13 05:35:21;;;;;;;148.20;72.90;;;;;;;1.20;100.00;100953.89;273695;1257;22390;-88
2023/02/13 05:41:23;;;;;;;153.60;67.10;;;;;;;1.24;100.00;100956.33;273775;1267;22360;-89
2023/02/13 05:47:25;;;;;;;128.90;63.60;;;;;;;1.30;100.00;100956.13;273462;1269;22349;-88
2023/02/13 05:53:28;;;;;;;132.20;63.70;;;;;;;1.34;100.00;100960.34;271757;1268;22325;-87
2023/02/13 05:59:30;;;;;;;117.50;55.00;;;;;;;1.37;100.00;100966.66;273650;1266;22524;-89
2023/02/13 06:05:32;;;;;;;138.00;59.30;;;;;;;1.40;100.00;100968.39;273558;1269;22205;-89
2023/02/13 06:11:34;;;;;;;119.60;54.60;;;;;;;1.45;100.00;100966.89;273590;1266;23703;-89
2023/02/13 06:17:36;;;;;;;104.90;49.70;;;;;;;1.49;100.00;100962.69;273548;1264;22458;-88
2023/02/13 06:23:38;;;;;;;118.40;57.80;;;;;;;1.53;100.00;100958.26;273942;1267;22277;-89
2023/02/13 06:29:41;;;;;;;131.00;62.70;;;;;;;1.57;100.00;100960.48;272343;1269;23344;-89
2023/02/13 06:35:43;;;;;;;122.40;55.20;;;;;;;1.63;100.00;100963.19;270241;1267;22657;-88
2023/02/13 06:41:46;;;;;;;110.50;50.60;;;;;;;1.69;100.00;100971.84;271967;1267;22555;-89
2023/02/13 06:47:50;;;;;;;108.80;49.70;;;;;;;1.77;100.00;100974.60;270406;1267;22560;-88
2023/02/13 06:53:54;;;;;;;110.60;47.90;;;;;;;1.88;100.00;100984.16;269793;1267;22553;-88
2023/02/13 07:00:04;;;;;;;102.10;44.30;;;;;;;1.95;100.00;100986.00;271644;1267;22632;-89
2023/02/13 07:06:06;;;;;;;106.90;47.40;;;;;;;2.00;100.00;100986.54;270467;1267;22481;-88
2023/02/13 07:12:09;;;;;;;259.40;111.00;;;;;;;2.02;100.00;100985.89;272718;1268;22313;-89
2023/02/13 07:18:11;;;;;;;129.10;58.90;;;;;;;2.05;100.00;100984.43;273319;1263;22320;-90
2023/02/13 07:24:13;;;;;;;102.00;47.60;;;;;;;2.10;100.00;100992.10;273545;1269;22702;-89
2023/02/13 07:30:15;;;;;;;111.60;49.90;;;;;;;2.18;100.00;100989.55;272853;1269;23008;-88
2023/02/13 07:36:17;;;;;;;110.80;48.90;;;;;;;2.24;100.00;100991.05;273184;1268;22467;-88
2023/02/13 07:42:23;;;;;;;99.70;48.60;;;;;;;2.31;100.00;100990.30;273349;1269;22556;-88
2023/02/13 07:48:28;;;;;;;111.60;49.70;;;;;;;2.39;100.00;100983.04;272049;1270;24241;-89
2023/02/13 07:54:30;;;;;;;94.30;43.70;;;;;;;2.50;100.00;100981.23;273572;1269;23003;-89
2023/02/13 08:00:33;;;;;;;100.00;45.20;;;;;;;2.60;100.00;100984.67;272785;1268;22577;-89
2023/02/13 08:06:38;;;;;;;96.20;44.50;;;;;;;2.70;100.00;100976.31;270611;1269;22537;-89
2023/02/13 08:12:43;;;;;;;79.10;38.50;;;;;;;2.82;100.00;100976.33;272092;1269;24288;-89
2023/02/13 08:18:45;;;;;;;72.10;38.70;;;;;;;2.93;100.00;100971.08;271887;1253;23327;-89
2023/02/13 08:24:49;;;;;;;80.40;39.30;;;;;;;3.05;100.00;100962.05;273562;1269;22276;-89
2023/02/13 08:30:51;;;;;;;79.40;39.20;;;;;;;3.21;100.00;100961.96;273298;1267;22195;-89
2023/02/13 08:36:54;;;;;;;69.30;35.90;;;;;;;3.56;100.00;100970.95;270953;1267;22949;-89
2023/02/13 08:43:01;;;;;;;82.20;38.30;;;;;;;3.72;100.00;100971.71;270997;1267;22539;-90
2023/02/13 08:49:16;;;;;;;;;;;;;;;;;;;;;
2023/02/13 08:55:32;;;;;;;66.10;32.90;;;;;;;4.13;100.00;100961.30;271176;1267;22613;-90
2023/02/13 09:01:35;;;;;;;65.70;31.50;;;;;;;4.35;100.00;100964.93;272070;1267;22365;-90
2023/02/13 09:07:38;;;;;;;64.90;30.70;;;;;;;4.52;100.00;100969.30;273593;1269;22952;-91
2023/02/13 09:13:40;;;;;;;53.70;27.00;;;;;;;4.68;100.00;100961.42;271122;1267;22577;-89
2023/02/13 09:19:42;;;;;;;53.50;27.40;;;;;;;4.85;100.00;100949.40;270402;1267;23716;-89
2023/02/13 09:25:44;;;;;;;60.80;29.90;;;;;;;4.98;100.00;100959.61;270525;1264;213845;-90
2023/02/13 09:31:49;;;;;;;57.70;29.30;;;;;;;5.12;100.00;100965.52;270204;1267;22604;-89
2023/02/13 09:37:53;;;;;;;61.70;29.00;;;;;;;5.27;100.00;100967.14;271806;1267;22575;-88
2023/02/13 09:44:32;;;;;;;59.90;29.80;;;;;;;5.27;100.00;100961.98;270818;1267;22591;-89
2023/02/13 09:50:38;;;;;;;52.00;27.10;;;;;;;5.36;100.00;100962.80;270599;1267;22561;-90
2023/02/13 09:57:06;;;;;;;49.60;27.50;;;;;;;5.67;100.00;100962.74;270397;1267;23670;-91
2023/02/13 10:03:23;;;;;;;43.80;23.90;;;;;;;5.95;100.00;100954.79;269992;1268;24228;-89
2023/02/13 10:09:39;;;;;;;49.10;23.40;;;;;;;6.13;100.00;100956.98;269782;1268;22502;-89
2023/02/13 10:16:18;;;;;;;41.50;23.10;;;;;;;6.06;100.00;100954.44;270599;1267;22529;-89
2023/02/13 10:22:35;;;;;;;42.30;22.40;;;;;;;5.96;100.00;100942.52;269899;1269;22744;-90
2023/02/13 10:35:28;;;;;;;36.40;19.50;;;;;;;6.13;100.00;100920.45;270088;1267;24002;-89
2023/02/13 10:41:42;;;;;;;30.60;16.50;;;;;;;6.10;100.00;100908.76;271198;1267;23460;-90
2023/02/13 10:47:57;;;;;;;30.40;15.60;;;;;;;6.16;100.00;100899.51;273042;1267;22351;-90
2023/02/13 10:54:21;;;;;;;31.40;16.40;;;;;;;6.17;100.00;100900.02;272794;1259;23602;-90
2023/02/13 11:00:44;;;;;;;24.90;14.20;;;;;;;6.22;100.00;100895.96;271709;1267;22377;-89
2023/02/13 11:07:01;;;;;;;25.30;11.50;;;;;;;6.21;100.00;100887.16;273751;1267;22369;-89
2023/02/13 11:13:21;;;;;;;25.00;10.80;;;;;;;6.29;100.00;100875.58;273506;1267;23073;-88
2023/02/13 11:19:27;;;;;;;22.70;10.70;;;;;;;6.34;100.00;100872.02;273669;1268;22563;-90
2023/02/13 11:25:30;;;;;;;16.10;8.60;;;;;;;6.43;100.00;100872.48;273602;1267;22341;-90
2023/02/13 11:31:34;;;;;;;19.30;9.10;;;;;;;6.56;100.00;100865.70;273482;1267;23036;-89
2023/02/13 11:37:35;;;;;;;20.90;10.10;;;;;;;6.70;100.00;100864.91;273593;1267;22190;-90
2023/02/13 11:43:49;;;;;;;17.20;9.30;;;;;;;6.63;100.00;100867.84;273686;1267;22211;-90
2023/02/13 11:49:51;;;;;;;21.30;9.00;;;;;;;6.55;100.00;100872.91;273302;1267;22343;-89
2023/02/13 11:56:12;;;;;;;22.50;9.50;;;;;;;6.51;100.00;100872.06;273313;1267;23272;-89
2023/02/13 12:02:44;;;;;;;17.80;7.60;;;;;;;6.44;100.00;100866.54;273343;1267;23344;-89
2023/02/13 12:08:48;;;;;;;17.20;7.50;;;;;;;6.34;100.00;100860.64;272991;1262;24287;-90
2023/02/13 12:14:54;;;;;;;19.30;8.40;;;;;;;6.29;100.00;100855.89;273494;1267;22337;-91
2023/02/13 12:21:05;;;;;;;18.40;8.20;;;;;;;6.22;100.00;100850.98;270608;1267;23628;-90
2023/02/13 12:27:41;;;;;;;19.90;9.40;;;;;;;6.12;100.00;100839.30;270274;1266;22639;-90
2023/02/13 12:34:05;;;;;;;24.00;9.80;;;;;;;6.08;100.00;100840.16;270297;1267;22622;-90
2023/02/13 12:40:23;;;;;;;19.90;10.20;;;;;;;6.04;100.00;100840.93;270533;1267;22692;-90
2023/02/13 12:46:48;;;;;;;29.40;13.70;;;;;;;6.20;100.00;100824.68;271025;1267;22350;-90
2023/02/13 12:53:03;;;;;;;20.20;9.90;;;;;;;6.42;100.00;100827.69;273687;1267;22344;-90
2023/02/13 12:59:09;;;;;;;17.30;10.30;;;;;;;6.38;100.00;100813.77;273627;1267;23270;-90
2023/02/13 13:05:24;;;;;;;18.00;8.50;;;;;;;6.42;100.00;100817.07;273637;1267;22213;-90
2023/02/13 13:11:49;;;;;;;16.90;8.60;;;;;;;6.48;100.00;100818.80;273856;1267;23011;-90
2023/02/13 13:18:10;;;;;;;14.80;8.00;;;;;;;6.46;100.00;100821.19;273697;1269;22460;-91
2023/02/13 13:24:32;;;;;;;14.10;8.30;;;;;;;6.33;100.00;100822.64;271757;1267;22574;-91
2023/02/13 13:30:34;;;;;;;18.00;9.60;;;;;;;6.15;100.00;100824.02;270749;1267;22239;-90
2023/02/13 13:36:54;;;;;;;19.40;10.70;;;;;;;5.96;100.00;100832.56;270306;1267;22531;-91
2023/02/13 13:43:03;;;;;;;25.60;12.40;;;;;;;5.76;100.00;100828.54;270998;1267;23919;-90
2023/02/13 13:49:51;;;;;;;20.00;12.00;;;;;;;5.63;100.00;100825.55;269960;1268;22576;-90
2023/02/13 13:55:57;;;;;;;23.10;12.00;;;;;;;5.59;100.00;100828.67;269869;1276;22369;-90
2023/02/13 14:02:17;;;;;;;29.30;13.80;;;;;;;5.60;100.00;100825.52;271847;1267;22322;-90
2023/02/13 14:08:43;;;;;;;27.60;13.70;;;;;;;5.58;100.00;100818.20;270460;1267;22358;-90
2023/02/13 14:14:45;;;;;;;26.40;14.40;;;;;;;5.52;100.00;100805.92;271912;1260;22630;-89
2023/02/13 14:20:49;;;;;;;29.70;15.20;;;;;;;5.45;100.00;100806.92;271666;1267;22196;-90
2023/02/13 14:26:55;;;;;;;30.30;14.80;;;;;;;5.42;100.00;100806.76;271608;1267;23146;-91
2023/02/13 14:33:00;;;;;;;28.10;15.10;;;;;;;5.35;100.00;100802.63;273679;1253;23296;-91
2023/02/13 14:39:07;;;;;;;28.90;13.60;;;;;;;5.27;100.00;100791.63;273482;1267;23868;-91
2023/02/13 14:45:14;;;;;;;25.20;13.00;;;;;;;5.21;100.00;100787.06;273446;1268;24071;-90
2023/02/13 14:51:27;;;;;;;23.10;12.50;;;;;;;5.13;100.00;100777.30;271509;1270;22597;-90
2023/02/13 14:57:43;;;;;;;27.80;14.40;;;;;;;5.07;100.00;100759.38;272882;1263;22350;-90
2023/02/13 15:03:48;;;;;;;31.40;14.80;;;;;;;5.05;100.00;100750.84;273502;1267;22190;-90
2023/02/13 15:10:23;;;;;;;25.60;14.10;;;;;;;5.04;100.00;100745.81;271548;1269;24428;-89
2023/02/13 15:16:25;;;;;;;25.20;14.40;;;;;;;5.01;100.00;100748.56;273172;1267;23478;-89
2023/02/13 15:22:35;;;;;;;24.40;13.80;;;;;;;4.99;100.00;100742.30;270683;1254;23582;-91
2023/02/13 15:28:37;;;;;;;20.00;12.40;;;;;;;4.97;100.00;100732.78;271560;1267;22546;-91
2023/02/13 15:34:46;;;;;;;24.90;13.30;;;;;;;4.91;100.00;100737.98;271253;1269;22545;-91
2023/02/13 15:40:49;;;;;;;27.00;14.30;;;;;;;4.83;100.00;100739.02;270680;1267;22556;-90
2023/02/13 15:46:53;;;;;;;25.20;14.70;;;;;;;4.76;100.00;100747.21;269857;1267;24208;-91
2023/02/13 15:52:59;;;;;;;25.90;14.50;;;;;;;4.68;100.00;100753.74;270197;1267;22559;-90
2023/02/13 15:59:03;;;;;;;24.20;14.40;;;;;;;4.59;100.00;100753.92;271297;1267;22270;-91
2023/02/13 16:05:08;;;;;;;28.70;16.20;;;;;;;4.50;100.00;100758.65;273749;1269;23491;-91
2023/02/13 16:11:26;;;;;;;30.40;16.70;;;;;;;4.44;100.00;100763.84;270612;1259;22557;-91
2023/02/13 16:17:30;;;;;;;27.30;17.30;;;;;;;4.37;100.00;100754.98;271507;1270;22387;-89
2023/02/13 16:23:32;;;;;;;29.70;16.50;;;;;;;4.29;100.00;100769.25;272392;1269;22513;-90
2023/02/13 16:29:37;;;;;;;31.40;18.70;;;;;;;4.22;100.00;100774.92;271655;1269;22384;-90
2023/02/13 16:35:43;;;;;;;32.50;18.00;;;;;;;4.17;100.00;100786.37;273250;1269;22429;-90
2023/02/13 16:41:45;;;;;;;21.40;13.20;;;;;;;4.12;100.00;100785.50;273145;1266;22326;-90
2023/02/13 16:47:57;;;;;;;21.80;13.10;;;;;;;4.08;100.00;100791.08;272770;1269;22842;-91
2023/02/13 16:54:02;;;;;;;23.70;13.40;;;;;;;4.02;100.00;100795.11;273444;1269;22391;-90
2023/02/13 17:00:06;;;;;;;32.80;19.70;;;;;;;3.98;100.00;100800.52;273007;1269;22335;-90
2023/02/13 17:06:08;;;;;;;36.00;20.60;;;;;;;3.97;100.00;100786.44;272996;1269;24348;-91
2023/02/13 17:12:15;;;;;;;47.00;27.00;;;;;;;3.95;100.00;100764.89;273037;1269;22343;-90
2023/02/13 17:18:17;;;;;;;;;;;;;;;3.93;100.00;100753.55;273344;1269;22446;-90
2023/02/13 17:24:19;;;;;;;34.40;18.80;;;;;;;3.89;100.00;100762.48;272630;1269;22230;-91
2023/02/13 17:30:23;;;;;;;36.00;17.10;;;;;;;3.84;100.00;100749.80;272877;1269;22377;-91
2023/02/13 17:36:27;;;;;;;29.30;15.40;;;;;;;3.78;100.00;100748.23;273412;1269;22382;-91
2023/02/13 17:42:44;;;;;;;;;;;;;;;;;;;;;
2023/02/13 17:48:49;;;;;;;24.80;14.10;;;;;;;3.62;100.00;100764.67;272021;1269;22387;-90
2023/02/13 17:54:54;;;;;;;22.90;14.40;;;;;;;3.52;100.00;100763.23;272694;1269;25445;-90
2023/02/13 18:00:56;;;;;;;21.60;13.30;;;;;;;3.44;100.00;100759.59;271190;1269;25073;-90
2023/02/13 18:07:01;;;;;;;27.40;14.50;;;;;;;3.37;100.00;100762.75;264074;1269;10001729;-90
2023/02/13 18:13:06;;;;;;;23.70;14.50;;;;;;;3.31;100.00;100783.14;273471;1269;23702;-90
2023/02/13 18:19:10;;;;;;;26.50;15.40;;;;;;;3.27;100.00;100790.92;272512;1269;23607;-90
2023/02/13 18:25:15;;;;;;;23.00;13.90;;;;;;;3.25;100.00;100776.72;273565;1267;22396;-91
2023/02/13 18:31:18;;;;;;;29.20;15.20;;;;;;;3.24;100.00;100771.32;273461;1267;22424;-91
2023/02/13 18:37:20;;;;;;;28.80;15.70;;;;;;;3.23;100.00;100792.36;273446;1267;22390;-90
2023/02/13 18:43:22;;;;;;;29.30;15.90;;;;;;;3.22;100.00;100796.33;273574;1269;22342;-91
2023/02/13 18:49:24;;;;;;;31.90;17.40;;;;;;;3.20;100.00;100797.11;273641;1268;22432;-90
2023/02/13 18:55:26;;;;;;;33.30;19.40;;;;;;;3.20;100.00;100806.09;273432;1269;22421;-90
2023/02/13 19:01:28;;;;;;;33.60;19.50;;;;;;;3.21;100.00;100811.17;273533;1267;22585;-90
2023/02/13 19:07:29;;;;;;;34.60;19.70;;;;;;;3.19;100.00;100814.33;273544;1268;23220;-91
2023/02/13 19:13:32;;;;;;;35.10;17.60;;;;;;;3.18;100.00;100826.50;273400;1269;22302;-90
2023/02/13 19:19:34;;;;;;;29.00;16.50;;;;;;;3.18;100.00;100839.65;272562;1269;22650;-90
2023/02/13 19:25:36;;;;;;;29.70;18.10;;;;;;;3.18;100.00;100852.97;273113;1269;22344;-90
2023/02/13 19:31:38;;;;;;;34.00;16.70;;;;;;;3.19;100.00;100850.25;272790;1269;22598;-90
2023/02/13 19:37:40;;;;;;;32.00;16.80;;;;;;;3.20;100.00;100847.76;272825;1270;22359;-90
2023/02/13 19:43:49;;;;;;;35.90;20.10;;;;;;;3.18;100.00;100849.98;272639;1270;22549;-90
2023/02/13 19:49:51;;;;;;;38.50;21.20;;;;;;;3.19;100.00;100847.02;272845;1269;23581;-90
2023/02/13 19:55:58;;;;;;;39.50;20.90;;;;;;;3.19;100.00;100844.69;271938;1269;23131;-91
2023/02/13 20:02:00;;;;;;;42.90;22.50;;;;;;;3.20;100.00;100853.17;271251;1269;22194;-91
2023/02/13 20:08:03;;;;;;;33.90;19.30;;;;;;;3.22;100.00;100851.83;271958;1270;23322;-90
2023/02/13 20:14:10;;;;;;;38.40;22.50;;;;;;;3.23;100.00;100849.32;273566;1270;23202;-91
2023/02/13 20:20:12;;;;;;;37.30;20.60;;;;;;;3.23;100.00;100864.37;273036;1268;23230;-89
2023/02/13 20:26:15;;;;;;;44.10;24.20;;;;;;;3.22;100.00;100872.88;273404;1270;23394;-90
2023/02/13 20:32:17;;;;;;;40.80;22.60;;;;;;;3.20;100.00;100880.67;271936;1267;22759;-89
2023/02/13 20:38:19;;;;;;;50.40;27.50;;;;;;;3.21;100.00;100880.94;271342;1267;22538;-90
2023/02/13 20:44:23;;;;;;;42.60;24.50;;;;;;;3.21;100.00;100873.15;271380;1270;22552;-90
2023/02/13 20:50:25;;;;;;;43.40;25.00;;;;;;;3.19;100.00;100879.48;272789;1270;22337;-91
2023/02/13 20:56:27;;;;;;;50.30;26.30;;;;;;;3.19;100.00;100885.81;271640;1267;22552;-91
2023/02/13 21:02:30;;;;;;;46.20;27.00;;;;;;;3.19;100.00;100880.02;272111;1270;23555;-89
2023/02/13 21:08:32;;;;;;;57.80;30.60;;;;;;;3.19;100.00;100866.94;272554;1269;22302;-90
2023/02/13 21:14:33;;;;;;;53.80;30.30;;;;;;;3.19;100.00;100851.93;273387;1269;22353;-90
2023/02/13 21:20:35;;;;;;;50.30;28.50;;;;;;;3.17;100.00;100855.09;273762;1269;22473;-89
2023/02/13 21:26:38;;;;;;;60.70;31.00;;;;;;;3.18;100.00;100851.73;273488;1270;125104;-90
2023/02/13 21:32:41;;;;;;;61.60;31.20;;;;;;;3.20;100.00;100846.36;265144;1269;10001493;-91
2023/02/13 21:38:42;;;;;;;47.80;27.90;;;;;;;3.19;100.00;100836.23;271919;1269;22322;-91
2023/02/13 21:44:45;;;;;;;51.30;27.80;;;;;;;3.18;100.00;100836.99;273602;1269;23595;-91
2023/02/13 21:50:47;;;;;;;47.30;26.10;;;;;;;3.18;100.00;100838.19;273633;1270;22626;-90
2023/02/13 21:56:50;;;;;;;55.00;28.80;;;;;;;3.16;100.00;100837.61;273661;1267;22177;-91
2023/02/13 22:02:52;;;;;;;57.30;29.60;;;;;;;3.15;100.00;100842.82;273547;1270;22404;-91
2023/02/13 22:08:55;;;;;;;54.80;30.80;;;;;;;3.15;100.00;100847.69;270735;1267;22562;-90
2023/02/13 22:14:57;;;;;;;55.70;29.90;;;;;;;3.12;100.00;100848.09;270225;1269;22589;-90
2023/02/13 22:21:06;;;;;;;54.70;29.00;;;;;;;3.10;100.00;100850.71;271421;1268;23118;-89
2023/02/13 22:27:08;;;;;;;50.60;27.10;;;;;;;3.08;100.00;100843.08;270013;1267;23007;-91
2023/02/13 22:33:10;;;;;;;54.50;28.60;;;;;;;3.10;100.00;100842.09;269377;1267;24215;-91
2023/02/13 22:39:11;;;;;;;60.20;28.90;;;;;;;3.09;100.00;100838.37;269890;1270;22544;-90
2023/02/13 22:45:13;;;;;;;52.70;27.40;;;;;;;3.09;100.00;100835.83;269807;1269;22551;-90
2023/02/13 22:51:19;;;;;;;57.00;29.30;;;;;;;3.07;100.00;100834.00;270077;1268;23757;-90
2023/02/13 22:57:21;;;;;;;57.20;30.10;;;;;;;3.05;100.00;100825.30;272664;1267;22337;-89
2023/02/13 23:03:23;;;;;;;62.30;28.60;;;;;;;3.04;100.00;100831.16;271696;1267;22605;-89
2023/02/13 23:09:25;;;;;;;52.70;26.90;;;;;;;3.03;100.00;100837.06;272470;1267;22183;-90
2023/02/13 23:15:29;;;;;;;53.90;27.30;;;;;;;3.03;100.00;100838.41;273823;1269;22225;-90
2023/02/13 23:21:33;;;;;;;46.50;24.40;;;;;;;3.03;100.00;100843.81;273615;1267;23096;-91
2023/02/13 23:27:36;;;;;;;52.60;28.10;;;;;;;3.03;100.00;100835.98;273548;1267;22369;-91
2023/02/13 23:33:40;;;;;;;52.80;28.30;;;;;;;3.02;100.00;100834.90;273736;1267;22327;-90
2023/02/13 23:39:42;;;;;;;56.10;27.30;;;;;;;3.01;100.00;100830.41;273868;1267;22231;-91
2023/02/13 23:45:46;;;;;;;62.70;31.40;;;;;;;3.00;100.00;100823.55;273239;1267;23211;-90
2023/02/13 23:51:48;;;;;;;59.70;30.60;;;;;;;2.99;100.00;100821.72;273766;1267;22449;-91
2023/02/13 23:57:50;;;;;;;67.10;33.00;;;;;;;2.98;100.00;100809.01;271360;1267;22872;-90
